createdAt,value
2023-03-29T00:02:09.623Z,73.91
2023-03-29T00:04:36.914Z,73.34
2023-03-29T00:07:04.546Z,73.90
2023-03-29T00:09:33.678Z,73.95
2023-03-29T00:12:01.708Z,73.95
2023-03-29T00:14:31.177Z,74.55
2023-03-29T00:16:59.234Z,74.55
2023-03-29T00:19:28.552Z,73.73
2023-03-29T00:21:55.727Z,73.41
2023-03-29T00:24:24.154Z,72.59
2023-03-29T00:26:51.331Z,71.69
2023-03-29T00:29:18.076Z,72.37
2023-03-29T00:31:51.454Z,72.14
2023-03-29T00:34:18.412Z,72.11
2023-03-29T00:36:45.275Z,71.39
2023-03-29T00:39:12.442Z,71.61
2023-03-29T00:41:39.457Z,71.41
2023-03-29T00:44:06.794Z,71.51
2023-03-29T00:46:35.224Z,71.31
2023-03-29T00:49:09.005Z,71.67
2023-03-29T00:51:39.799Z,71.01
2023-03-29T00:54:09.575Z,71.51
2023-03-29T00:56:40.657Z,70.83
2023-03-29T00:59:14.007Z,72.82
2023-03-29T01:01:48.626Z,72.96
2023-03-29T01:04:32.848Z,73.12
2023-03-29T01:07:02.887Z,72.81
2023-03-29T01:09:33.615Z,73.87
2023-03-29T01:12:08.332Z,73.58
2023-03-29T01:14:41.999Z,74.14
2023-03-29T01:17:08.940Z,73.50
2023-03-29T01:19:43.563Z,72.96
2023-03-29T01:22:22.720Z,73.26
2023-03-29T01:25:01.196Z,73.80
2023-03-29T01:27:48.052Z,74.28
2023-03-29T01:30:23.749Z,74.02
2023-03-29T01:32:59.484Z,74.46
2023-03-29T01:35:37.134Z,73.91
2023-03-29T01:38:13.807Z,72.87
2023-03-29T01:40:40.946Z,73.12
2023-03-29T01:43:37.026Z,73.50
2023-03-29T01:46:10.556Z,73.58
2023-03-29T01:48:48.124Z,74.02
2023-03-29T01:51:45.547Z,73.24
2023-03-29T01:54:28.522Z,73.74
2023-03-29T01:56:57.496Z,73.92
2023-03-29T01:59:29.356Z,74.42
2023-03-29T02:02:00.334Z,74.29
2023-03-29T02:04:38.777Z,74.60
2023-03-29T02:07:09.095Z,75.10
2023-03-29T02:09:38.925Z,75.19
2023-03-29T02:12:08.210Z,75.52
2023-03-29T02:14:35.780Z,75.06
2023-03-29T02:17:26.838Z,75.87
2023-03-29T02:20:15.400Z,75.61
2023-03-29T02:22:57.231Z,75.86
2023-03-29T02:25:24.816Z,75.34
2023-03-29T02:27:52.925Z,75.32
2023-03-29T02:30:21.220Z,74.79
2023-03-29T02:32:54.192Z,75.42
2023-03-29T02:35:34.475Z,75.51
2023-03-29T02:38:08.088Z,75.54
2023-03-29T02:40:36.446Z,75.81
2023-03-29T02:43:04.783Z,75.68
2023-03-29T02:45:32.860Z,76.18
2023-03-29T02:48:05.435Z,75.39
2023-03-29T02:50:38.176Z,76.32
2023-03-29T02:53:13.414Z,75.58
2023-03-29T02:55:40.323Z,76.42
2023-03-29T02:58:10.686Z,76.97
2023-03-29T03:00:42.299Z,77.39
2023-03-29T03:03:10.544Z,77.73
2023-03-29T03:05:38.474Z,78.02
2023-03-29T03:08:07.520Z,77.44
2023-03-29T03:10:35.635Z,77.71
2023-03-29T03:13:03.099Z,77.74
2023-03-29T03:15:31.326Z,77.54
2023-03-29T03:17:58.214Z,77.92
2023-03-29T03:20:25.050Z,77.04
2023-03-29T03:22:51.955Z,77.59
2023-03-29T03:25:24.853Z,76.78
2023-03-29T03:27:51.732Z,77.41
2023-03-29T03:30:19.424Z,77.32
2023-03-29T03:32:46.598Z,76.19
2023-03-29T03:35:13.948Z,76.08
2023-03-29T03:37:41.039Z,74.64
2023-03-29T03:40:09.389Z,75.02
2023-03-29T03:42:36.371Z,74.60
2023-03-29T03:45:03.413Z,73.62
2023-03-29T03:47:31.048Z,73.06
2023-03-29T03:49:58.491Z,74.27
2023-03-29T03:52:25.537Z,73.71
2023-03-29T03:54:52.462Z,73.87
2023-03-29T03:57:19.279Z,72.58
2023-03-29T03:59:46.117Z,72.57
2023-03-29T04:02:12.951Z,72.68
2023-03-29T04:04:41.163Z,72.66
2023-03-29T04:07:09.819Z,72.09
2023-03-29T04:09:37.881Z,72.76
2023-03-29T04:12:05.120Z,72.10
2023-03-29T04:14:32.764Z,72.53
2023-03-29T04:16:59.674Z,71.90
2023-03-29T04:19:26.602Z,72.06
2023-03-29T04:21:53.713Z,72.38
2023-03-29T04:24:20.751Z,72.99
2023-03-29T04:26:47.990Z,72.08
2023-03-29T04:29:15.052Z,72.57
2023-03-29T04:31:42.262Z,73.09
2023-03-29T04:34:09.316Z,72.19
2023-03-29T04:36:36.454Z,72.65
2023-03-29T04:39:04.637Z,72.70
2023-03-29T04:41:32.904Z,72.52
2023-03-29T04:43:59.878Z,73.11
2023-03-29T04:46:26.982Z,72.69
2023-03-29T04:48:54.523Z,72.86
2023-03-29T04:51:22.966Z,73.15
2023-03-29T04:53:50.829Z,73.12
2023-03-29T04:56:17.856Z,73.82
2023-03-29T04:58:44.776Z,73.51
2023-03-29T05:01:11.949Z,73.29
2023-03-29T05:03:38.865Z,73.73
2023-03-29T05:06:08.158Z,74.18
2023-03-29T05:08:39.421Z,74.74
2023-03-29T05:11:07.864Z,74.24
2023-03-29T05:13:35.620Z,73.68
2023-03-29T05:16:07.219Z,73.40
2023-03-29T05:18:34.006Z,73.78
2023-03-29T05:21:00.991Z,73.36
2023-03-29T05:23:29.336Z,73.24
2023-03-29T05:25:56.617Z,73.53
2023-03-29T05:28:23.653Z,74.07
2023-03-29T05:31:00.841Z,73.67
2023-03-29T05:33:28.991Z,74.18
2023-03-29T05:36:03.739Z,73.85
2023-03-29T05:38:30.918Z,74.23
2023-03-29T05:41:01.265Z,73.84
2023-03-29T05:43:29.014Z,73.53
2023-03-29T05:45:56.936Z,73.09
2023-03-29T05:48:24.149Z,73.12
2023-03-29T05:50:52.573Z,73.65
2023-03-29T05:53:22.564Z,73.87
2023-03-29T05:55:49.552Z,73.36
2023-03-29T05:58:18.324Z,73.62
2023-03-29T06:00:45.578Z,73.31
2023-03-29T06:03:21.956Z,73.65
2023-03-29T06:05:59.603Z,73.82
2023-03-29T06:08:28.075Z,74.20
2023-03-29T06:11:04.905Z,73.41
2023-03-29T06:13:34.258Z,72.86
2023-03-29T06:16:01.753Z,72.59
2023-03-29T06:18:29.517Z,72.95
2023-03-29T06:20:56.282Z,72.10
2023-03-29T06:23:23.578Z,71.94
2023-03-29T06:25:51.660Z,72.08
2023-03-29T06:28:20.283Z,72.09
2023-03-29T06:30:49.212Z,72.58
2023-03-29T06:33:20.700Z,73.89
2023-03-29T06:35:49.679Z,73.86
2023-03-29T06:38:17.072Z,73.66
2023-03-29T06:40:45.024Z,73.01
2023-03-29T06:43:12.130Z,72.24
2023-03-29T06:45:40.048Z,71.64
2023-03-29T06:48:09.703Z,72.04
2023-03-29T06:50:37.487Z,71.48
2023-03-29T06:53:04.643Z,70.95
2023-03-29T06:55:32.149Z,70.99
2023-03-29T06:58:02.160Z,71.01
2023-03-29T07:00:30.055Z,69.77
2023-03-29T07:02:58.704Z,69.24
2023-03-29T07:05:27.541Z,69.80
2023-03-29T07:08:00.433Z,69.64
2023-03-29T07:10:32.965Z,70.48
2023-03-29T07:13:01.373Z,70.23
2023-03-29T07:15:29.473Z,69.89
2023-03-29T07:17:58.025Z,69.44
2023-03-29T07:20:27.291Z,68.59
2023-03-29T07:22:54.116Z,67.63
2023-03-29T07:25:22.924Z,67.36
2023-03-29T07:27:50.802Z,67.84
2023-03-29T07:30:21.214Z,66.28
2023-03-29T07:32:48.360Z,67.63
2023-03-29T07:35:15.422Z,68.16
2023-03-29T07:37:44.645Z,67.98
2023-03-29T07:40:18.905Z,67.93
2023-03-29T07:42:46.843Z,67.58
2023-03-29T07:45:16.649Z,67.35
2023-03-29T07:47:44.971Z,67.38
2023-03-29T07:50:12.449Z,67.85
2023-03-29T07:52:39.876Z,67.94
2023-03-29T07:55:08.517Z,67.86
2023-03-29T07:57:36.017Z,67.06
2023-03-29T08:00:11.863Z,65.89
2023-03-29T08:02:39.508Z,67.13
2023-03-29T08:05:07.223Z,66.02
2023-03-29T08:07:34.010Z,65.55
2023-03-29T08:10:00.931Z,65.17
2023-03-29T08:12:27.849Z,64.86
2023-03-29T08:14:54.720Z,62.85
2023-03-29T08:17:21.510Z,62.89
2023-03-29T08:19:50.950Z,62.99
2023-03-29T08:22:18.357Z,63.33
2023-03-29T08:24:45.289Z,62.64
2023-03-29T08:27:12.094Z,62.45
2023-03-29T08:29:39.330Z,62.93
2023-03-29T08:32:07.336Z,61.90
2023-03-29T08:34:35.725Z,61.48
2023-03-29T08:37:04.661Z,62.04
2023-03-29T08:39:32.744Z,60.86
2023-03-29T08:42:14.782Z,60.81
2023-03-29T08:44:56.806Z,62.43
2023-03-29T08:47:36.098Z,62.65
2023-03-29T08:50:04.632Z,62.19
2023-03-29T08:52:38.304Z,61.18
2023-03-29T08:55:19.841Z,59.80
2023-03-29T08:57:50.041Z,59.83
2023-03-29T09:00:38.362Z,59.48
2023-03-29T09:03:43.585Z,59.43
2023-03-29T09:06:15.305Z,59.00
2023-03-29T09:08:49.467Z,59.43
2023-03-29T09:11:32.871Z,59.62
2023-03-29T09:14:33.881Z,61.76
2023-03-29T09:17:15.704Z,60.64
2023-03-29T09:20:07.063Z,60.70
2023-03-29T09:22:59.765Z,59.80
2023-03-29T09:25:53.341Z,58.41
2023-03-29T09:28:47.912Z,57.06
2023-03-29T09:31:23.034Z,56.43
2023-03-29T09:33:58.185Z,56.11
2023-03-29T09:36:47.940Z,55.07
2023-03-29T09:39:16.697Z,56.94
2023-03-29T09:42:09.589Z,57.02
2023-03-29T09:44:42.541Z,57.01
2023-03-29T09:47:19.476Z,55.76
2023-03-29T09:49:52.627Z,55.16
2023-03-29T09:52:21.180Z,53.75
2023-03-29T09:54:48.328Z,55.32
2023-03-29T09:57:19.906Z,55.11
2023-03-29T09:59:51.313Z,53.41
2023-03-29T10:02:21.278Z,54.24
2023-03-29T10:05:01.028Z,51.60
2023-03-29T10:07:40.178Z,54.25
2023-03-29T10:10:11.362Z,56.65
2023-03-29T10:12:38.404Z,57.16
2023-03-29T10:15:08.556Z,57.11
2023-03-29T10:17:40.791Z,55.93
2023-03-29T10:20:14.592Z,55.18
2023-03-29T10:22:48.702Z,54.82
2023-03-29T10:25:18.183Z,55.96
2023-03-29T10:27:48.069Z,55.48
2023-03-29T10:30:22.824Z,53.49
2023-03-29T10:32:58.257Z,51.58
2023-03-29T10:35:38.519Z,54.36
2023-03-29T10:38:10.771Z,55.56
2023-03-29T10:40:44.233Z,57.84
2023-03-29T10:43:17.561Z,57.56
2023-03-29T10:45:48.335Z,59.10
2023-03-29T10:48:17.794Z,59.46
2023-03-29T10:50:53.122Z,60.08
2023-03-29T10:53:27.956Z,60.89
2023-03-29T10:56:19.285Z,60.92
2023-03-29T10:59:07.554Z,60.84
2023-03-29T11:01:51.737Z,59.45
2023-03-29T11:04:34.685Z,61.14
2023-03-29T11:07:22.806Z,61.31
2023-03-29T11:09:59.625Z,60.49
2023-03-29T11:12:46.626Z,60.79
2023-03-29T11:15:43.029Z,61.20
2023-03-29T11:18:35.029Z,63.88
2023-03-29T11:21:21.388Z,64.17
2023-03-29T11:24:01.087Z,64.11
2023-03-29T11:26:37.706Z,64.24
2023-03-29T11:29:16.425Z,65.47
2023-03-29T11:32:02.595Z,64.78
2023-03-29T11:34:51.115Z,62.61
2023-03-29T11:37:28.834Z,63.25
2023-03-29T11:40:17.699Z,63.33
2023-03-29T11:42:48.620Z,64.44
2023-03-29T11:45:28.794Z,63.95
2023-03-29T11:47:59.266Z,63.63
2023-03-29T11:50:36.615Z,63.57
2023-03-29T11:53:14.853Z,61.61
2023-03-29T11:55:42.950Z,59.41
2023-03-29T11:58:19.997Z,59.82
2023-03-29T12:01:04.247Z,59.24
2023-03-29T12:03:40.413Z,59.38
2023-03-29T12:06:12.024Z,57.95
2023-03-29T12:08:46.516Z,58.11
2023-03-29T12:11:23.042Z,57.46
2023-03-29T12:14:05.273Z,57.69
2023-03-29T12:16:38.123Z,57.50
2023-03-29T12:19:15.316Z,57.19
2023-03-29T12:21:44.924Z,58.56
2023-03-29T12:24:14.130Z,59.33
2023-03-29T12:27:01.661Z,60.19
2023-03-29T12:29:40.333Z,58.88
2023-03-29T12:32:33.194Z,57.85
2023-03-29T12:35:18.278Z,58.36
2023-03-29T12:38:08.467Z,56.96
2023-03-29T12:40:47.602Z,56.27
2023-03-29T12:43:38.078Z,55.92
2023-03-29T12:46:29.973Z,54.56
2023-03-29T12:49:05.982Z,56.12
2023-03-29T12:51:35.171Z,56.91
2023-03-29T12:54:16.809Z,58.03
2023-03-29T12:56:53.470Z,57.92
2023-03-29T12:59:23.021Z,58.95
2023-03-29T13:02:14.923Z,59.41
2023-03-29T13:04:55.818Z,61.29
2023-03-29T13:07:22.857Z,61.35
2023-03-29T13:09:56.945Z,60.95
2023-03-29T13:12:46.107Z,61.41
2023-03-29T13:15:16.928Z,61.68
2023-03-29T13:18:25.876Z,60.87
2023-03-29T13:21:15.200Z,61.85
2023-03-29T13:23:57.861Z,61.66
2023-03-29T13:26:28.705Z,63.23
2023-03-29T13:28:57.880Z,62.13
2023-03-29T13:31:35.247Z,61.42
2023-03-29T13:34:37.219Z,61.16
2023-03-29T13:37:40.249Z,61.76
2023-03-29T13:40:32.123Z,62.77
2023-03-29T13:43:11.229Z,62.29
2023-03-29T13:45:39.118Z,62.51
2023-03-29T13:48:30.199Z,63.61
2023-03-29T13:51:15.980Z,64.00
2023-03-29T13:54:03.905Z,64.79
2023-03-29T13:56:55.206Z,65.43
2023-03-29T13:59:43.377Z,66.31
2023-03-29T14:02:42.408Z,66.06
2023-03-29T14:05:16.731Z,65.33
2023-03-29T14:07:49.785Z,64.74
2023-03-29T14:10:23.181Z,62.89
2023-03-29T14:12:50.491Z,61.04
2023-03-29T14:15:24.344Z,61.82
2023-03-29T14:18:00.246Z,62.24
2023-03-29T14:20:28.824Z,62.82
2023-03-29T14:22:55.726Z,62.52
2023-03-29T14:25:23.183Z,62.75
2023-03-29T14:27:50.244Z,64.51
2023-03-29T14:30:27.781Z,65.74
2023-03-29T14:32:57.059Z,66.47
2023-03-29T14:35:33.501Z,65.87
2023-03-29T14:38:01.796Z,65.80
2023-03-29T14:40:31.030Z,65.25
2023-03-29T14:43:00.452Z,65.22
2023-03-29T14:45:30.298Z,66.40
2023-03-29T14:47:58.151Z,67.82
2023-03-29T14:50:30.391Z,67.32
2023-03-29T14:52:58.937Z,66.51
2023-03-29T14:55:27.512Z,65.38
2023-03-29T14:57:55.698Z,65.84
2023-03-29T15:00:39.904Z,64.28
2023-03-29T15:03:14.486Z,64.37
2023-03-29T15:05:44.380Z,64.63
2023-03-29T15:08:18.054Z,65.60
2023-03-29T15:10:45.462Z,64.91
2023-03-29T15:13:18.725Z,65.12
2023-03-29T15:15:46.502Z,63.99
2023-03-29T15:18:16.952Z,63.71
2023-03-29T15:20:45.245Z,63.64
2023-03-29T15:23:15.233Z,62.42
2023-03-29T15:26:16.164Z,62.32
2023-03-29T15:28:55.883Z,61.44
2023-03-29T15:31:32.548Z,63.10
2023-03-29T15:34:09.391Z,64.02
2023-03-29T15:36:42.619Z,63.76
2023-03-29T15:39:14.232Z,63.60
2023-03-29T15:41:46.035Z,63.99
2023-03-29T15:44:15.847Z,64.76
2023-03-29T15:46:43.046Z,64.75
2023-03-29T15:49:14.197Z,65.63
2023-03-29T15:51:41.480Z,65.79
2023-03-29T15:54:09.437Z,65.86
2023-03-29T15:56:46.838Z,66.52
2023-03-29T15:59:13.752Z,67.30
2023-03-29T16:01:42.026Z,68.23
2023-03-29T16:04:17.909Z,66.34
2023-03-29T16:06:48.803Z,67.11
2023-03-29T16:09:17.357Z,67.08
2023-03-29T16:11:45.921Z,67.46
2023-03-29T16:14:34.016Z,67.66
2023-03-29T16:17:04.982Z,68.01
2023-03-29T16:19:33.317Z,67.88
2023-03-29T16:22:03.321Z,67.79
2023-03-29T16:24:32.283Z,67.02
2023-03-29T16:27:01.482Z,67.71
2023-03-29T16:29:29.084Z,68.53
2023-03-29T16:31:56.140Z,68.42
2023-03-29T16:34:23.565Z,68.19
2023-03-29T16:36:50.963Z,68.33
2023-03-29T16:39:18.511Z,69.03
2023-03-29T16:41:48.615Z,69.22
2023-03-29T16:44:23.558Z,69.98
2023-03-29T16:46:54.124Z,70.05
2023-03-29T16:49:21.798Z,70.29
2023-03-29T16:51:48.920Z,70.17
2023-03-29T16:54:20.212Z,69.75
2023-03-29T16:56:47.346Z,70.76
2023-03-29T16:59:14.327Z,70.99
2023-03-29T17:01:41.761Z,71.25
2023-03-29T17:04:09.259Z,70.76
2023-03-29T17:06:36.252Z,71.16
2023-03-29T17:09:03.833Z,71.02
2023-03-29T17:11:30.951Z,72.17
2023-03-29T17:13:57.883Z,71.76
2023-03-29T17:16:25.142Z,72.10
2023-03-29T17:18:52.093Z,72.75
2023-03-29T17:21:19.406Z,72.93
2023-03-29T17:23:46.634Z,72.92
2023-03-29T17:26:13.670Z,73.32
2023-03-29T17:28:40.509Z,74.31
2023-03-29T17:31:08.106Z,73.77
2023-03-29T17:33:36.498Z,74.18
2023-03-29T17:36:05.342Z,73.52
2023-03-29T17:38:34.259Z,73.92
2023-03-29T17:41:03.082Z,73.91
2023-03-29T17:43:30.283Z,74.44
2023-03-29T17:45:57.068Z,74.22
2023-03-29T17:48:24.733Z,74.42
2023-03-29T17:50:52.192Z,74.50
2023-03-29T17:53:19.149Z,75.29
2023-03-29T17:55:46.113Z,75.49
2023-03-29T17:58:13.530Z,74.97
2023-03-29T18:00:40.536Z,75.76
2023-03-29T18:03:07.498Z,75.23
2023-03-29T18:05:35.923Z,74.93
2023-03-29T18:08:02.984Z,75.39
2023-03-29T18:10:29.992Z,75.04
2023-03-29T18:12:58.790Z,74.97
2023-03-29T18:15:25.709Z,75.35
2023-03-29T18:17:52.779Z,74.88
2023-03-29T18:20:20.894Z,75.42
2023-03-29T18:22:48.025Z,76.21
2023-03-29T18:25:15.272Z,76.26
2023-03-29T18:27:42.033Z,76.09
2023-03-29T18:30:09.565Z,75.89
2023-03-29T18:32:36.786Z,76.11
2023-03-29T18:35:04.183Z,76.53
2023-03-29T18:37:31.224Z,75.95
2023-03-29T18:39:58.495Z,76.58
2023-03-29T18:42:25.754Z,76.97
2023-03-29T18:44:52.853Z,76.94
2023-03-29T18:47:19.968Z,76.95
2023-03-29T18:49:47.417Z,76.74
2023-03-29T18:52:14.311Z,77.06
2023-03-29T18:54:41.925Z,77.94
2023-03-29T18:57:08.993Z,77.87
2023-03-29T18:59:39.475Z,77.31
2023-03-29T19:02:06.794Z,78.53
2023-03-29T19:04:33.835Z,78.27
2023-03-29T19:07:01.991Z,78.49
2023-03-29T19:09:28.905Z,78.27
2023-03-29T19:11:55.790Z,78.94
2023-03-29T19:14:25.404Z,78.77
2023-03-29T19:16:52.836Z,78.06
2023-03-29T19:19:20.183Z,78.83
2023-03-29T19:21:50.287Z,79.09
2023-03-29T19:24:17.589Z,79.44
2023-03-29T19:26:44.986Z,79.47
2023-03-29T19:29:12.076Z,79.88
2023-03-29T19:31:39.201Z,79.56
2023-03-29T19:34:07.309Z,78.99
2023-03-29T19:36:34.344Z,79.24
2023-03-29T19:39:01.379Z,79.57
2023-03-29T19:41:28.674Z,80.25
2023-03-29T19:43:55.863Z,79.12
2023-03-29T19:46:23.102Z,79.37
2023-03-29T19:48:52.044Z,79.25
2023-03-29T19:51:19.855Z,79.50
2023-03-29T19:53:47.444Z,78.58
2023-03-29T19:56:17.519Z,79.97
2023-03-29T19:58:44.428Z,80.13
2023-03-29T20:01:11.365Z,79.00
2023-03-29T20:03:39.072Z,80.08
2023-03-29T20:06:08.504Z,80.79
2023-03-29T20:08:39.005Z,81.61
2023-03-29T20:11:10.584Z,80.63
2023-03-29T20:13:41.682Z,80.32
2023-03-29T20:16:11.061Z,80.62
2023-03-29T20:18:38.587Z,80.34
2023-03-29T20:21:08.010Z,79.84
2023-03-29T20:23:35.747Z,80.17
2023-03-29T20:26:03.322Z,80.23
2023-03-29T20:28:30.283Z,80.55
2023-03-29T20:30:57.080Z,80.54
2023-03-29T20:33:24.071Z,80.88
2023-03-29T20:35:51.142Z,80.72
2023-03-29T20:38:18.015Z,80.61
2023-03-29T20:40:45.305Z,80.64
2023-03-29T20:43:13.779Z,80.54
2023-03-29T20:45:52.723Z,80.19
2023-03-29T20:48:26.784Z,80.83
2023-03-29T20:50:54.514Z,81.04
2023-03-29T20:53:21.583Z,81.23
2023-03-29T20:55:48.614Z,81.13
2023-03-29T20:58:16.096Z,81.60
2023-03-29T21:00:44.072Z,81.25
2023-03-29T21:03:13.125Z,81.30
2023-03-29T21:05:40.325Z,81.43
2023-03-29T21:08:08.634Z,81.86
2023-03-29T21:10:36.646Z,81.50
2023-03-29T21:13:03.836Z,82.00
2023-03-29T21:15:31.265Z,82.53
2023-03-29T21:17:58.752Z,83.25
2023-03-29T21:20:27.843Z,84.17
2023-03-29T21:22:54.575Z,84.56
2023-03-29T21:25:21.836Z,85.29
2023-03-29T21:27:49.701Z,84.86
2023-03-29T21:30:16.665Z,85.27
2023-03-29T21:32:43.619Z,85.28
2023-03-29T21:35:13.949Z,86.30
2023-03-29T21:37:40.857Z,85.00
2023-03-29T21:40:09.513Z,85.77
2023-03-29T21:42:39.638Z,86.22
2023-03-29T21:45:07.247Z,86.75
2023-03-29T21:47:34.306Z,86.97
2023-03-29T21:50:01.402Z,86.69
2023-03-29T21:52:28.506Z,87.60
2023-03-29T21:54:55.461Z,86.99
2023-03-29T21:57:22.535Z,86.82
2023-03-29T21:59:49.281Z,86.64
2023-03-29T22:02:15.984Z,85.87
2023-03-29T22:04:42.689Z,86.28
2023-03-29T22:07:10.782Z,86.42
2023-03-29T22:09:37.855Z,87.25
2023-03-29T22:12:04.942Z,86.49
2023-03-29T22:14:35.379Z,86.26
2023-03-29T22:17:08.105Z,86.12
2023-03-29T22:19:39.890Z,86.77
2023-03-29T22:22:14.116Z,86.54
2023-03-29T22:24:42.369Z,85.73
2023-03-29T22:27:10.665Z,86.58
2023-03-29T22:29:37.723Z,86.99
2023-03-29T22:32:05.131Z,86.17
2023-03-29T22:34:32.680Z,87.23
2023-03-29T22:36:59.604Z,87.43
2023-03-29T22:39:27.036Z,88.38
2023-03-29T22:41:53.834Z,88.13
2023-03-29T22:44:20.683Z,87.83
2023-03-29T22:46:47.674Z,87.95
2023-03-29T22:49:15.012Z,87.73
2023-03-29T22:51:42.083Z,87.19
2023-03-29T22:54:08.795Z,86.92
2023-03-29T22:56:35.859Z,87.76
2023-03-29T22:59:02.762Z,88.22
2023-03-29T23:01:29.558Z,87.23
2023-03-29T23:03:56.684Z,87.14
2023-03-29T23:06:23.598Z,87.52
2023-03-29T23:08:50.694Z,87.68
2023-03-29T23:11:17.694Z,87.83
2023-03-29T23:13:48.979Z,88.68
2023-03-29T23:16:16.789Z,87.45
2023-03-29T23:18:43.779Z,87.26
2023-03-29T23:21:10.823Z,87.93
2023-03-29T23:23:37.701Z,88.51
2023-03-29T23:26:05.533Z,87.65
2023-03-29T23:28:34.795Z,87.53
2023-03-29T23:31:10.312Z,87.87
2023-03-29T23:33:41.390Z,87.93
2023-03-29T23:36:17.673Z,87.94
2023-03-29T23:38:47.107Z,87.57
2023-03-29T23:41:14.936Z,86.63
2023-03-29T23:43:43.637Z,87.15
2023-03-29T23:46:16.985Z,86.77
2023-03-29T23:48:49.275Z,87.02
2023-03-29T23:51:19.044Z,87.71
2023-03-29T23:53:46.768Z,86.95
2023-03-29T23:56:13.684Z,87.47
2023-03-29T23:58:40.574Z,87.59
